Time;durP1;ratioP1;P1;durP2;ratioP2;P2;SDS_P1;SDS_P2;PMS_P1;PMS_P2;Temp;Humidity;BMP_temperature;BMP_pressure;BME280_temperature;BME280_humidity;BME280_pressure;Samples;Min_cycle;Max_cycle;Signal;HPM_P1;HPM_P2
2023/12/26 00:01:32;;;;;;;0.37;0.30;;;;;;;10.16;100.00;99977.53;4982076;28;20741;-80
2023/12/26 00:03:59;;;;;;;0.30;0.30;;;;;;;10.18;100.00;99989.91;5013042;22;20326;-65
2023/12/26 00:06:26;;;;;;;0.30;0.30;;;;;;;10.22;100.00;99990.84;4988983;28;20212;-64
2023/12/26 00:08:54;;;;;;;0.20;0.20;;;;;;;10.19;100.00;99986.38;5002136;28;20681;-66
2023/12/26 00:11:21;;;;;;;0.53;0.30;;;;;;;10.17;100.00;99984.59;4992148;28;20215;-64
2023/12/26 00:13:49;;;;;;;0.20;0.20;;;;;;;10.17;100.00;99982.84;4982455;28;20278;-68
2023/12/26 00:16:17;;;;;;;0.33;0.30;;;;;;;10.14;100.00;99974.88;4983647;28;20735;-65
2023/12/26 00:18:54;;;;;;;0.20;0.20;;;;;;;10.13;100.00;99981.03;4971823;28;20228;-66
2023/12/26 00:21:27;;;;;;;0.27;0.20;;;;;;;10.17;100.00;99968.72;4977848;28;20209;-65
2023/12/26 00:23:54;;;;;;;0.20;0.20;;;;;;;10.16;100.00;99966.94;4980957;28;20231;-70
2023/12/26 00:26:21;;;;;;;0.50;0.40;;;;;;;10.18;100.00;99974.03;4963411;28;20296;-70
2023/12/26 00:28:48;;;;;;;0.30;0.30;;;;;;;10.13;100.00;99965.16;4956602;28;20763;-69
2023/12/26 00:31:14;;;;;;;1.30;0.30;;;;;;;10.12;100.00;99973.09;4964426;28;20462;-69
2023/12/26 00:33:41;;;;;;;0.83;0.30;;;;;;;10.09;100.00;99959.84;4966718;28;20250;-69
2023/12/26 00:36:18;;;;;;;1.60;0.30;;;;;;;10.10;100.00;99962.50;4964658;28;20285;-71
2023/12/26 00:38:45;;;;;;;0.40;0.30;;;;;;;10.11;100.00;99958.09;4969167;28;20202;-69
2023/12/26 00:41:13;;;;;;;1.63;0.30;;;;;;;10.05;100.00;99954.53;4969514;28;20204;-69
2023/12/26 00:43:40;;;;;;;1.40;0.40;;;;;;;10.07;100.00;99956.31;4965755;28;20273;-69
2023/12/26 00:46:06;;;;;;;1.87;0.33;;;;;;;10.07;100.00;99954.53;4971330;28;20289;-69
2023/12/26 00:48:35;;;;;;;0.20;0.20;;;;;;;10.05;100.00;99953.63;4970906;28;20422;-71
2023/12/26 00:51:03;;;;;;;0.30;0.30;;;;;;;10.10;100.00;99954.56;4967326;28;20209;-69
2023/12/26 00:53:29;;;;;;;0.30;0.30;;;;;;;10.08;100.00;99945.72;4971813;28;20335;-71
2023/12/26 00:55:56;;;;;;;0.30;0.30;;;;;;;10.05;100.00;99958.94;4971546;28;20200;-69
2023/12/26 00:58:22;;;;;;;0.33;0.33;;;;;;;10.03;100.00;99940.41;4971362;28;20662;-68
2023/12/26 01:00:49;;;;;;;1.70;0.30;;;;;;;10.04;100.00;99946.59;4965470;28;20215;-69
2023/12/26 01:03:15;;;;;;;1.10;0.30;;;;;;;10.04;100.00;99950.09;4970465;28;20869;-69
2023/12/26 01:05:42;;;;;;;0.77;0.30;;;;;;;10.09;100.00;99946.63;4970202;28;20282;-71
2023/12/26 01:08:11;;;;;;;1.23;0.23;;;;;;;10.08;100.00;99944.84;4969974;28;20249;-69
2023/12/26 01:10:38;;;;;;;1.30;0.30;;;;;;;10.07;100.00;99943.06;4967861;28;20574;-69
2023/12/26 01:13:05;;;;;;;0.43;0.30;;;;;;;10.07;100.00;99948.38;4969407;28;20226;-70
2023/12/26 01:15:32;;;;;;;0.40;0.40;;;;;;;10.10;100.00;99945.75;4969245;28;20228;-70
2023/12/26 01:17:58;;;;;;;1.03;0.43;;;;;;;10.07;100.00;99938.66;4970096;28;20236;-69
2023/12/26 01:20:25;;;;;;;0.40;0.30;;;;;;;10.08;100.00;99935.16;4969041;28;20292;-69
2023/12/26 01:22:52;;;;;;;0.40;0.30;;;;;;;10.11;100.00;99943.09;4971086;28;20213;-69
2023/12/26 01:25:19;;;;;;;0.80;0.37;;;;;;;10.10;100.00;99953.69;4968886;28;20229;-69
2023/12/26 01:27:45;;;;;;;0.30;0.30;;;;;;;10.10;100.00;99951.91;4969346;28;20209;-70
2023/12/26 01:30:11;;;;;;;0.27;0.27;;;;;;;10.10;100.00;99953.69;4969958;28;20198;-69
2023/12/26 01:32:38;;;;;;;0.20;0.20;;;;;;;10.05;100.00;99954.53;4970066;28;20526;-70
2023/12/26 01:35:06;;;;;;;1.03;0.50;;;;;;;10.07;100.00;99959.81;4965063;28;20773;-69
2023/12/26 01:37:32;;;;;;;0.30;0.30;;;;;;;10.05;100.00;99958.94;4970925;28;20210;-69
2023/12/26 01:39:59;;;;;;;0.27;0.27;;;;;;;10.08;100.00;99961.59;4969740;28;20292;-69
2023/12/26 01:42:25;;;;;;;0.30;0.30;;;;;;;10.08;100.00;99972.19;4969801;28;20300;-69
2023/12/26 01:44:52;;;;;;;0.30;0.30;;;;;;;10.09;100.00;99978.38;4965220;28;20319;-69
2023/12/26 01:47:19;;;;;;;0.30;0.30;;;;;;;10.11;100.00;99985.44;4970618;28;20287;-68
2023/12/26 01:49:45;;;;;;;0.30;0.30;;;;;;;10.12;100.00;99989.84;4969904;28;20221;-68
2023/12/26 01:52:14;;;;;;;0.40;0.40;;;;;;;10.09;100.00;99987.19;4966446;28;20661;-68
2023/12/26 01:54:40;;;;;;;0.30;0.30;;;;;;;10.02;100.00;99991.53;4964982;28;20239;-69
2023/12/26 01:57:07;;;;;;;0.30;0.30;;;;;;;9.96;100.00;99999.38;4967002;28;20677;-68
2023/12/26 01:59:36;;;;;;;0.30;0.30;;;;;;;9.97;100.00;99987.06;4963454;28;20284;-69
2023/12/26 02:02:06;;;;;;;0.43;0.37;;;;;;;9.90;100.00;99988.75;4968573;28;20221;-70
2023/12/26 02:04:33;;;;;;;0.30;0.30;;;;;;;9.94;100.00;99995.84;4964661;28;20233;-71
2023/12/26 02:07:00;;;;;;;1.43;0.60;;;;;;;9.89;100.00;99986.09;4970047;28;20211;-68
2023/12/26 02:09:27;;;;;;;0.40;0.40;;;;;;;9.94;100.00;99979.97;4964164;28;20301;-68
2023/12/26 02:11:55;;;;;;;0.80;0.30;;;;;;;9.92;100.00;99972.91;4969369;28;20642;-69
2023/12/26 02:14:21;;;;;;;1.50;0.40;;;;;;;9.94;100.00;100001.13;4966420;28;20234;-71
2023/12/26 02:16:49;;;;;;;0.43;0.40;;;;;;;9.95;100.00;99979.09;4968232;28;20204;-68
2023/12/26 02:19:16;;;;;;;0.40;0.40;;;;;;;9.94;100.00;99976.44;4963523;28;20624;-68
2023/12/26 02:21:42;;;;;;;0.63;0.57;;;;;;;9.97;100.00;99980.00;4966803;28;20204;-69
2023/12/26 02:24:09;;;;;;;1.83;0.57;;;;;;;10.00;100.00;99992.38;4966578;28;20279;-69
2023/12/26 02:26:40;;;;;;;2.27;0.70;;;;;;;9.97;100.00;99995.88;4962881;28;20201;-69
2023/12/26 02:29:07;;;;;;;3.10;0.60;;;;;;;10.00;100.00;99981.78;4966754;28;20236;-69
2023/12/26 02:31:36;;;;;;;0.70;0.60;;;;;;;9.98;100.00;99981.78;4981352;28;20201;-69
2023/12/26 02:34:03;;;;;;;2.30;0.70;;;;;;;9.96;100.00;99980.00;4966563;28;20260;-71
2023/12/26 02:36:29;;;;;;;2.20;1.40;;;;;;;9.85;100.00;99985.19;4961378;28;20615;-69
2023/12/26 02:38:56;;;;;;;0.93;0.70;;;;;;;9.85;100.00;99993.13;4967343;28;20254;-69
2023/12/26 02:41:22;;;;;;;2.80;0.77;;;;;;;9.82;100.00;99982.50;4965660;28;20629;-71
2023/12/26 02:43:49;;;;;;;1.53;0.83;;;;;;;9.78;100.00;99963.97;4979575;28;20236;-69
2023/12/26 02:46:15;;;;;;;2.70;0.90;;;;;;;9.76;100.00;99963.94;4968554;28;20204;-69
2023/12/26 02:48:42;;;;;;;2.43;0.87;;;;;;;9.70;100.00;99969.19;4964415;28;20233;-69
2023/12/26 02:51:08;;;;;;;1.13;0.80;;;;;;;9.76;100.00;99973.63;4980379;28;20296;-69
2023/12/26 02:53:35;;;;;;;2.17;1.00;;;;;;;9.72;100.00;99984.19;4965387;28;20246;-69
2023/12/26 02:56:02;;;;;;;5.87;1.20;;;;;;;9.76;100.00;99973.63;4966812;28;20203;-69
2023/12/26 02:58:29;;;;;;;2.43;0.90;;;;;;;9.71;100.00;99985.06;4966101;28;20661;-69
2023/12/26 03:00:57;;;;;;;2.30;1.03;;;;;;;9.69;100.00;99973.59;4965047;28;20298;-69
2023/12/26 03:03:23;;;;;;;2.70;0.90;;;;;;;9.64;100.00;99980.59;4966963;28;20201;-69
2023/12/26 03:05:50;;;;;;;1.20;0.87;;;;;;;9.60;100.00;99988.44;4964210;28;20214;-69
2023/12/26 03:08:16;;;;;;;2.63;1.10;;;;;;;9.62;100.00;99989.38;4967184;28;20615;-69
2023/12/26 03:10:43;;;;;;;2.27;1.10;;;;;;;9.65;100.00;99992.94;4979744;28;20580;-69
2023/12/26 03:13:09;;;;;;;3.07;1.20;;;;;;;9.64;100.00;99990.28;4968196;28;20297;-69
2023/12/26 03:15:36;;;;;;;3.40;0.90;;;;;;;9.63;100.00;99993.78;4965288;28;20228;-69
2023/12/26 03:18:02;;;;;;;2.90;0.90;;;;;;;9.63;100.00;99997.31;4967344;28;20211;-69
2023/12/26 03:20:29;;;;;;;2.00;1.13;;;;;;;9.67;100.00;99995.59;4965651;28;20201;-69
2023/12/26 03:22:56;;;;;;;4.13;1.20;;;;;;;9.69;100.00;100002.66;4979675;28;20673;-69
2023/12/26 03:25:23;;;;;;;8.23;1.20;;;;;;;9.64;100.00;100003.50;4966196;28;20319;-69
2023/12/26 03:27:49;;;;;;;3.13;0.90;;;;;;;9.64;100.00;100003.50;4967198;28;20258;-69
2023/12/26 03:30:16;;;;;;;1.67;1.17;;;;;;;9.62;100.00;99990.25;4965275;28;20232;-69
2023/12/26 03:32:44;;;;;;;3.33;1.13;;;;;;;9.65;100.00;99987.66;4966727;28;20243;-70
2023/12/26 03:35:11;;;;;;;3.07;1.30;;;;;;;9.69;100.00;99984.16;4964660;28;20240;-71
2023/12/26 03:37:38;;;;;;;3.93;1.30;;;;;;;9.72;100.00;99983.31;4963884;28;20686;-70
2023/12/26 03:40:05;;;;;;;5.40;1.10;;;;;;;9.72;100.00;99989.47;4971489;28;20207;-69
2023/12/26 03:42:32;;;;;;;5.60;1.20;;;;;;;9.74;100.00;99984.19;4970617;28;20215;-69
2023/12/26 03:44:58;;;;;;;2.60;1.00;;;;;;;9.72;100.00;99988.59;4986191;28;20733;-69
2023/12/26 03:47:25;;;;;;;3.33;1.30;;;;;;;9.72;100.00;100000.06;4968488;28;20589;-69
2023/12/26 03:49:52;;;;;;;3.17;1.30;;;;;;;9.74;100.00;99992.13;4966463;28;20231;-69
2023/12/26 03:52:18;;;;;;;2.63;1.20;;;;;;;9.77;100.00;100005.38;4971125;28;20230;-69
2023/12/26 03:54:45;;;;;;;2.77;1.17;;;;;;;9.78;100.00;100006.28;4968881;28;20317;-69
2023/12/26 03:57:11;;;;;;;5.87;1.40;;;;;;;9.78;100.00;100000.97;4970063;28;20205;-71
2023/12/26 03:59:38;;;;;;;3.10;1.20;;;;;;;9.80;100.00;100004.53;4968056;28;20208;-68
2023/12/26 04:02:04;;;;;;;5.93;1.60;;;;;;;9.77;100.00;100002.75;4969350;28;20223;-68
2023/12/26 04:04:31;;;;;;;5.50;1.47;;;;;;;9.79;100.00;100002.75;4969042;28;20258;-71
2023/12/26 04:06:57;;;;;;;4.97;1.83;;;;;;;9.77;100.00;100007.16;4968619;28;20472;-69
2023/12/26 04:09:24;;;;;;;3.20;1.10;;;;;;;9.79;100.00;99997.47;4971079;28;20289;-69
2023/12/26 04:11:50;;;;;;;4.93;1.10;;;;;;;9.82;100.00;100006.31;4966465;28;20583;-68
2023/12/26 04:14:17;;;;;;;3.87;1.30;;;;;;;9.81;100.00;100001.91;4969485;28;20739;-69
2023/12/26 04:16:43;;;;;;;2.93;1.23;;;;;;;9.76;100.00;100000.09;4965650;28;20219;-71
2023/12/26 04:19:10;;;;;;;6.40;1.13;;;;;;;9.79;100.00;100001.00;4969529;28;20204;-70
2023/12/26 04:21:37;;;;;;;3.73;1.93;;;;;;;9.73;100.00;99990.38;4970088;28;20203;-69
2023/12/26 04:24:04;;;;;;;4.60;1.27;;;;;;;9.79;100.00;100003.66;4984907;28;20237;-71
2023/12/26 04:26:30;;;;;;;5.07;2.00;;;;;;;9.79;100.00;100016.88;4969356;28;20565;-68
2023/12/26 04:28:57;;;;;;;1.60;1.20;;;;;;;9.82;100.00;100010.72;4983190;28;20236;-69
2023/12/26 04:31:25;;;;;;;4.40;1.37;;;;;;;9.78;100.00;100004.50;4966713;28;20207;-71
2023/12/26 04:33:51;;;;;;;5.23;1.40;;;;;;;9.77;100.00;100015.97;4969198;28;20771;-71
2023/12/26 04:36:18;;;;;;;4.23;1.33;;;;;;;9.75;100.00;100015.06;4962901;28;20314;-71
2023/12/26 04:38:44;;;;;;;3.07;1.23;;;;;;;9.73;100.00;100028.28;4969850;28;20566;-69
2023/12/26 04:41:11;;;;;;;3.57;1.30;;;;;;;9.66;100.00;100030.84;4966851;28;20235;-69
2023/12/26 04:43:39;;;;;;;6.33;1.43;;;;;;;9.67;100.00;100025.56;4969066;28;20323;-69
2023/12/26 04:46:05;;;;;;;3.87;1.40;;;;;;;9.70;100.00;100033.53;4965172;28;20298;-70
2023/12/26 04:48:32;;;;;;;5.53;1.53;;;;;;;9.73;100.00;100045.91;4969890;28;20305;-69
2023/12/26 04:50:59;;;;;;;7.17;1.80;;;;;;;9.69;100.00;100037.03;4965827;28;20325;-69
2023/12/26 04:53:27;;;;;;;2.37;1.20;;;;;;;9.74;100.00;100051.19;4967649;28;20643;-71
2023/12/26 04:55:56;;;;;;;3.67;1.00;;;;;;;9.78;100.00;100045.94;4967715;28;20741;-69
2023/12/26 04:58:23;;;;;;;3.07;1.17;;;;;;;9.73;100.00;100057.34;4970445;28;20799;-70
2023/12/26 05:00:49;;;;;;;3.73;1.20;;;;;;;9.73;100.00;100053.81;4965849;28;20291;-69
2023/12/26 05:03:16;;;;;;;6.27;1.53;;;;;;;9.70;100.00;100053.78;4965260;28;20211;-71
2023/12/26 05:05:42;;;;;;;3.33;1.60;;;;;;;9.76;100.00;100060.91;4964340;28;20211;-71
2023/12/26 05:08:09;;;;;;;10.10;1.50;;;;;;;9.71;100.00;100061.75;4967530;28;20212;-69
2023/12/26 05:10:35;;;;;;;4.43;1.10;;;;;;;9.70;100.00;100064.38;4968346;28;20227;-70
2023/12/26 05:13:02;;;;;;;7.43;1.50;;;;;;;9.66;100.00;100065.22;4969169;28;20214;-69
2023/12/26 05:15:28;;;;;;;3.80;1.03;;;;;;;9.65;100.00;100064.31;4966717;28;20226;-70
2023/12/26 05:17:55;;;;;;;3.50;1.40;;;;;;;9.63;100.00;100063.41;4969413;28;20208;-70
2023/12/26 05:20:22;;;;;;;7.53;1.53;;;;;;;9.61;100.00;100070.44;4968558;28;20256;-69
2023/12/26 05:22:57;;;;;;;2.00;1.07;;;;;;;9.59;100.00;100071.25;4969028;28;20209;-71
2023/12/26 05:25:24;;;;;;;2.70;1.10;;;;;;;9.51;100.00;100072.94;4967348;28;20226;-69
2023/12/26 05:27:51;;;;;;;2.87;1.10;;;;;;;9.50;100.00;100076.44;4966156;28;20209;-71
2023/12/26 05:30:18;;;;;;;2.07;1.20;;;;;;;9.46;100.00;100083.44;4964477;28;20227;-70
2023/12/26 05:32:45;;;;;;;2.57;1.20;;;;;;;9.43;100.00;100088.69;4963365;28;20212;-72
2023/12/26 05:35:11;;;;;;;2.83;1.37;;;;;;;9.47;100.00;100086.97;4966304;28;20630;-71
2023/12/26 05:37:38;;;;;;;2.30;1.13;;;;;;;9.39;100.00;100090.41;4968639;28;20205;-69
2023/12/26 05:40:05;;;;;;;5.93;1.40;;;;;;;9.38;100.00;100091.28;4968143;28;20220;-69
2023/12/26 05:42:32;;;;;;;5.87;1.50;;;;;;;9.39;100.00;100097.47;4967108;28;20690;-71
2023/12/26 05:44:58;;;;;;;3.10;1.00;;;;;;;9.34;100.00;100099.16;4974592;28;20221;-69
2023/12/26 05:47:25;;;;;;;2.50;1.20;;;;;;;9.30;100.00;100092.94;4964789;28;20241;-69
2023/12/26 05:49:53;;;;;;;3.40;1.33;;;;;;;9.27;100.00;100105.22;4969073;28;20308;-69
2023/12/26 05:52:19;;;;;;;4.10;1.63;;;;;;;9.25;100.00;100101.69;4977462;28;20749;-70
2023/12/26 05:54:46;;;;;;;3.57;1.30;;;;;;;9.17;100.00;100100.66;4967971;28;20274;-69
2023/12/26 05:57:12;;;;;;;3.50;1.10;;;;;;;9.17;100.00;100104.19;4967433;28;20209;-70
2023/12/26 05:59:39;;;;;;;4.20;1.30;;;;;;;9.14;100.00;100101.50;4968853;28;20827;-69
2023/12/26 06:02:05;;;;;;;4.37;1.47;;;;;;;9.08;100.00;100094.38;4962958;28;20590;-69
2023/12/26 06:04:34;;;;;;;3.20;1.20;;;;;;;9.14;100.00;100111.19;4967790;28;20233;-69
2023/12/26 06:07:00;;;;;;;4.50;1.10;;;;;;;9.15;100.00;100105.91;4964988;28;20210;-69
2023/12/26 06:09:27;;;;;;;4.20;1.60;;;;;;;9.17;100.00;100117.41;4968472;28;20251;-70
2023/12/26 06:11:53;;;;;;;2.73;1.13;;;;;;;9.16;100.00;100112.97;4966738;28;20212;-70
2023/12/26 06:14:22;;;;;;;2.50;1.30;;;;;;;9.17;100.00;100113.88;4960238;28;20236;-69
2023/12/26 06:16:48;;;;;;;4.63;1.43;;;;;;;9.22;100.00;100126.31;4965205;28;20699;-70
2023/12/26 06:19:15;;;;;;;6.53;1.20;;;;;;;9.22;100.00;100131.59;4965583;28;20209;-69
2023/12/26 06:21:43;;;;;;;2.30;1.17;;;;;;;9.20;100.00;100119.19;4968954;28;20202;-69
2023/12/26 06:24:09;;;;;;;3.90;1.40;;;;;;;9.18;100.00;100126.22;4967503;28;20321;-69
2023/12/26 06:26:36;;;;;;;2.40;1.13;;;;;;;9.19;100.00;100133.25;4968009;28;20615;-69
2023/12/26 06:29:02;;;;;;;5.80;1.20;;;;;;;9.22;100.00;100136.88;4967098;28;20515;-69
2023/12/26 06:31:29;;;;;;;4.70;1.20;;;;;;;9.24;100.00;100140.44;4965601;28;20226;-69
2023/12/26 06:33:55;;;;;;;7.47;1.13;;;;;;;9.24;100.00;100145.72;4964953;28;20220;-69
2023/12/26 06:36:22;;;;;;;3.87;1.13;;;;;;;9.23;100.00;100154.50;4965512;28;20207;-69
2023/12/26 06:38:49;;;;;;;2.67;1.30;;;;;;;9.26;100.00;100153.66;4987756;28;20235;-70
2023/12/26 06:41:15;;;;;;;6.20;1.60;;;;;;;9.19;100.00;100152.66;4989219;28;20205;-72
2023/12/26 06:43:42;;;;;;;2.97;1.40;;;;;;;9.22;100.00;100155.38;4984710;28;20257;-72
2023/12/26 06:46:08;;;;;;;4.80;1.30;;;;;;;9.25;100.00;100159.81;4981949;28;20232;-68
2023/12/26 06:48:35;;;;;;;4.70;1.20;;;;;;;9.26;100.00;100161.59;4967675;28;20637;-71
2023/12/26 06:51:04;;;;;;;4.30;1.47;;;;;;;9.24;100.00;100161.56;4980411;28;20603;-69
2023/12/26 06:53:30;;;;;;;6.53;1.60;;;;;;;9.24;100.00;100165.97;4962314;28;20215;-69
2023/12/26 06:55:57;;;;;;;3.03;1.43;;;;;;;9.24;100.00;100166.84;4966872;28;20208;-69
2023/12/26 06:58:23;;;;;;;4.10;1.27;;;;;;;9.24;100.00;100171.25;4966885;28;20302;-70
2023/12/26 07:00:49;;;;;;;5.47;1.20;;;;;;;9.29;100.00;100167.81;4966663;28;20573;-69
2023/12/26 07:03:17;;;;;;;2.20;1.20;;;;;;;9.27;100.00;100174.81;4984363;28;20205;-69
2023/12/26 07:05:44;;;;;;;6.73;1.50;;;;;;;9.24;100.00;100164.19;4966090;28;20225;-70
2023/12/26 07:08:10;;;;;;;3.60;1.27;;;;;;;9.30;100.00;100179.25;4969546;28;20212;-69
2023/12/26 07:10:37;;;;;;;4.17;1.50;;;;;;;9.32;100.00;100182.81;4968004;28;20300;-69
2023/12/26 07:13:03;;;;;;;2.77;1.27;;;;;;;9.34;100.00;100176.69;4984457;28;20234;-69
2023/12/26 07:15:30;;;;;;;3.57;1.57;;;;;;;9.40;100.00;100176.75;4973219;28;20769;-69
2023/12/26 07:17:56;;;;;;;4.50;1.20;;;;;;;9.40;100.00;100194.38;4972541;28;20302;-71
2023/12/26 07:20:25;;;;;;;3.27;1.10;;;;;;;9.40;100.00;100197.03;4969349;28;20211;-69
2023/12/26 07:22:51;;;;;;;6.73;1.27;;;;;;;9.40;100.00;100197.91;4972461;28;20288;-69
2023/12/26 07:25:18;;;;;;;2.93;1.23;;;;;;;9.41;100.00;100212.91;4972550;28;20260;-69
2023/12/26 07:27:45;;;;;;;6.93;1.10;;;;;;;9.46;100.00;100209.44;4972855;28;20208;-69
2023/12/26 07:30:11;;;;;;;3.47;1.33;;;;;;;9.46;100.00;100212.97;4987913;28;20227;-69
2023/12/26 07:32:38;;;;;;;4.20;0.80;;;;;;;9.49;100.00;100220.06;4971334;28;20220;-72
2023/12/26 07:35:05;;;;;;;2.47;1.10;;;;;;;9.55;100.00;100228.06;4971333;28;20242;-69
2023/12/26 07:37:32;;;;;;;3.90;1.00;;;;;;;9.55;100.00;100241.28;4973727;28;20230;-69
2023/12/26 07:39:58;;;;;;;3.63;1.10;;;;;;;9.52;100.00;100233.31;4969889;28;20197;-69
2023/12/26 07:42:26;;;;;;;3.90;1.50;;;;;;;9.56;100.00;100246.59;4970624;28;20217;-70
2023/12/26 07:44:52;;;;;;;3.50;1.10;;;;;;;9.57;100.00;100255.41;4971319;28;20254;-70
2023/12/26 07:47:18;;;;;;;5.07;1.30;;;;;;;9.58;100.00;100258.09;4971480;28;20286;-69
2023/12/26 07:49:45;;;;;;;2.87;0.90;;;;;;;9.61;100.00;100250.22;4971085;28;20695;-69
2023/12/26 07:52:12;;;;;;;3.27;1.13;;;;;;;9.62;100.00;100267.88;4972557;28;20673;-71
2023/12/26 07:54:38;;;;;;;1.37;0.80;;;;;;;9.66;100.00;100274.09;4972721;28;20218;-70
2023/12/26 07:57:05;;;;;;;3.27;1.17;;;;;;;9.67;100.00;100273.22;4973089;28;20637;-69
2023/12/26 07:59:32;;;;;;;1.70;1.00;;;;;;;9.70;100.00;100282.09;4968472;28;20204;-69
2023/12/26 08:01:58;;;;;;;4.20;1.00;;;;;;;9.70;100.00;100275.91;4970720;28;20208;-71
2023/12/26 08:04:25;;;;;;;2.03;1.20;;;;;;;9.78;100.00;100290.13;4970547;28;20228;-71
2023/12/26 08:06:51;;;;;;;2.03;1.00;;;;;;;9.80;100.00;100287.50;4973043;28;20285;-69
2023/12/26 08:09:19;;;;;;;3.17;1.10;;;;;;;9.77;100.00;100291.00;4968651;28;20672;-69
2023/12/26 08:11:45;;;;;;;1.90;0.90;;;;;;;9.78;100.00;100302.47;4972525;28;20221;-69
2023/12/26 08:14:17;;;;;;;3.10;1.10;;;;;;;9.76;100.00;100291.88;4974455;28;20238;-69
2023/12/26 08:16:45;;;;;;;3.30;1.10;;;;;;;9.78;100.00;100294.53;4973471;28;20224;-71
2023/12/26 08:19:12;;;;;;;1.77;0.80;;;;;;;9.79;100.00;100289.25;4970550;28;20628;-69
2023/12/26 08:21:38;;;;;;;2.27;0.90;;;;;;;9.83;100.00;100298.13;4973758;28;20198;-69
2023/12/26 08:24:07;;;;;;;1.53;0.70;;;;;;;9.79;100.00;100299.84;4973605;28;20337;-69
2023/12/26 08:26:33;;;;;;;2.77;1.10;;;;;;;9.83;100.00;100298.13;4980889;28;20241;-69
2023/12/26 08:29:00;;;;;;;1.50;1.00;;;;;;;9.82;100.00;100291.94;4971311;28;20238;-69
2023/12/26 08:31:27;;;;;;;1.73;0.90;;;;;;;9.84;100.00;100300.78;4970377;28;20223;-69
2023/12/26 08:33:53;;;;;;;1.90;1.00;;;;;;;9.89;100.00;100314.09;4969238;28;20221;-71
2023/12/26 08:36:20;;;;;;;2.03;0.90;;;;;;;9.92;100.00;100315.00;4972161;28;20265;-69
2023/12/26 08:38:46;;;;;;;3.87;0.93;;;;;;;9.92;100.00;100303.53;4972249;28;20223;-69
2023/12/26 08:41:13;;;;;;;4.10;1.27;;;;;;;9.92;100.00;100315.00;4971009;28;20304;-69
2023/12/26 08:43:40;;;;;;;1.30;0.80;;;;;;;9.97;100.00;100321.25;4970528;28;20221;-69
2023/12/26 08:46:06;;;;;;;2.00;0.83;;;;;;;9.95;100.00;100322.09;4971044;28;20206;-69
2023/12/26 08:48:32;;;;;;;2.93;0.93;;;;;;;9.97;100.00;100337.13;4970445;28;20294;-69
2023/12/26 08:50:59;;;;;;;1.97;0.80;;;;;;;9.94;100.00;100341.50;4964809;28;20788;-69
2023/12/26 08:53:26;;;;;;;2.37;0.70;;;;;;;9.98;100.00;100344.19;4966057;28;20205;-69
2023/12/26 08:55:52;;;;;;;2.00;0.90;;;;;;;10.00;100.00;100347.75;4969942;28;20264;-69
2023/12/26 08:58:19;;;;;;;3.67;1.00;;;;;;;10.07;100.00;100353.16;4970754;28;20298;-69
2023/12/26 09:00:45;;;;;;;1.53;0.80;;;;;;;10.06;100.00;100362.88;4963627;28;20513;-69
2023/12/26 09:03:12;;;;;;;2.67;0.93;;;;;;;10.10;100.00;100362.03;4965857;28;20223;-70
2023/12/26 09:05:40;;;;;;;2.60;0.73;;;;;;;10.11;100.00;100360.28;4965891;28;20751;-69
2023/12/26 09:08:07;;;;;;;2.43;0.80;;;;;;;10.10;100.00;100363.78;4984535;28;20669;-69
2023/12/26 09:10:33;;;;;;;3.20;0.70;;;;;;;10.11;100.00;100361.16;4970127;28;20260;-69
2023/12/26 09:13:00;;;;;;;1.20;0.77;;;;;;;10.16;100.00;100371.81;4968890;28;20240;-69
2023/12/26 09:15:26;;;;;;;3.17;0.70;;;;;;;10.20;100.00;100387.78;4967535;28;20546;-71
2023/12/26 09:17:53;;;;;;;3.30;0.70;;;;;;;10.20;100.00;100385.16;4968000;28;20256;-69
2023/12/26 09:20:20;;;;;;;1.10;0.70;;;;;;;10.19;100.00;100401.88;4967123;28;20213;-69
2023/12/26 09:22:46;;;;;;;1.80;0.87;;;;;;;10.22;100.00;100416.94;4967508;28;20235;-70
2023/12/26 09:25:14;;;;;;;1.57;0.80;;;;;;;10.26;100.00;100411.69;4968941;28;20319;-69
2023/12/26 09:27:42;;;;;;;1.30;0.80;;;;;;;10.29;100.00;100406.44;4970504;28;20213;-69
2023/12/26 09:30:09;;;;;;;5.70;1.10;;;;;;;10.35;100.00;100405.66;4963667;28;20206;-69
2023/12/26 09:32:36;;;;;;;1.73;0.63;;;;;;;10.30;100.00;100410.00;4966472;28;20213;-71
2023/12/26 09:35:03;;;;;;;1.23;0.70;;;;;;;10.31;100.00;100425.00;4968517;28;20232;-69
2023/12/26 09:37:30;;;;;;;1.87;0.97;;;;;;;10.31;100.00;100425.88;4970201;28;20205;-69
2023/12/26 09:39:56;;;;;;;0.70;0.60;;;;;;;10.29;100.00;100419.69;4967096;28;20221;-69
2023/12/26 09:42:23;;;;;;;1.73;0.80;;;;;;;10.31;100.00;100411.75;4965847;28;20207;-71
2023/12/26 09:44:51;;;;;;;1.40;0.60;;;;;;;10.28;100.00;100420.56;4966180;28;20800;-69
2023/12/26 09:47:20;;;;;;;2.03;0.70;;;;;;;10.30;100.00;100432.06;4965203;28;20205;-69
2023/12/26 09:49:47;;;;;;;1.53;0.80;;;;;;;10.23;100.00;100434.59;4965890;28;20234;-69
2023/12/26 09:52:14;;;;;;;1.00;0.80;;;;;;;10.25;100.00;100449.63;4969422;28;20248;-69
2023/12/26 09:54:43;;;;;;;1.20;0.70;;;;;;;10.25;100.00;100457.56;4969064;28;20309;-71
2023/12/26 09:57:14;;;;;;;3.43;0.90;;;;;;;10.29;100.00;100453.22;4959142;28;20207;-69
2023/12/26 09:59:42;;;;;;;2.83;0.90;;;;;;;10.35;100.00;100455.94;4965999;28;20209;-70
2023/12/26 10:02:12;;;;;;;0.60;0.60;;;;;;;10.39;100.00;100449.81;4967473;28;20258;-69
2023/12/26 10:04:39;;;;;;;2.07;0.77;;;;;;;10.44;100.00;100442.88;4964526;28;20226;-69
2023/12/26 10:07:06;;;;;;;3.23;0.80;;;;;;;10.43;100.00;100461.38;4974045;28;20241;-69
2023/12/26 10:09:33;;;;;;;2.07;0.87;;;;;;;10.46;100.00;100461.44;4968292;28;20207;-69
2023/12/26 10:11:59;;;;;;;1.70;0.60;;;;;;;10.41;100.00;100471.06;4969438;28;20232;-70
2023/12/26 10:14:30;;;;;;;0.77;0.67;;;;;;;10.47;100.00;100469.38;4984171;28;20229;-69
2023/12/26 10:16:57;;;;;;;2.23;0.80;;;;;;;10.52;100.00;100461.50;4969159;28;20198;-69
2023/12/26 10:19:25;;;;;;;0.53;0.53;;;;;;;10.60;100.00;100467.81;4968989;28;20228;-69
2023/12/26 10:21:53;;;;;;;0.80;0.70;;;;;;;10.70;100.00;100474.13;4968559;28;20199;-70
2023/12/26 10:24:20;;;;;;;1.57;0.70;;;;;;;10.75;100.00;100472.41;4969995;28;20265;-70
2023/12/26 10:26:47;;;;;;;1.20;0.70;;;;;;;10.79;100.00;100477.78;4969932;28;20550;-69
2023/12/26 10:29:15;;;;;;;2.37;0.93;;;;;;;10.75;100.00;100480.38;4985334;28;20211;-70
2023/12/26 10:31:42;;;;;;;1.77;1.00;;;;;;;10.82;100.00;100490.19;4969251;28;20293;-69
2023/12/26 10:34:19;;;;;;;2.60;0.80;;;;;;;10.79;100.00;100498.06;4966846;28;20235;-69
2023/12/26 10:36:49;;;;;;;0.87;0.70;;;;;;;10.85;100.00;100504.38;4967666;28;20212;-69
2023/12/26 10:39:17;;;;;;;0.93;0.70;;;;;;;11.01;100.00;100496.63;4976410;28;20680;-69
2023/12/26 10:41:46;;;;;;;1.90;0.70;;;;;;;11.05;100.00;100496.69;4969268;28;20227;-69
2023/12/26 10:44:17;;;;;;;1.27;0.60;;;;;;;11.21;100.00;100495.13;4967073;28;20246;-69
2023/12/26 10:46:45;;;;;;;2.03;0.90;;;;;;;11.26;100.00;100504.03;4969685;28;20262;-69
2023/12/26 10:49:24;;;;;;;1.50;0.80;;;;;;;11.26;100.00;100504.94;4969214;28;20282;-69
2023/12/26 10:51:52;;;;;;;1.20;0.53;;;;;;;11.25;100.00;100510.22;4964151;28;20238;-70
2023/12/26 10:54:25;;;;;;;1.93;0.50;;;;;;;11.20;100.00;100507.47;4983424;28;20221;-70
2023/12/26 10:56:55;;;;;;;3.03;0.63;;;;;;;11.15;100.00;100508.28;4984006;28;20207;-69
2023/12/26 13:51:49;;;;;;;2.10;0.60;;;;;;;11.57;100.00;100539.75;5003748;28;20241;-68
2023/12/26 13:54:15;;;;;;;1.07;0.60;;;;;;;11.66;100.00;100552.25;5006515;28;20218;-67
2023/12/26 13:56:42;;;;;;;2.10;0.60;;;;;;;11.72;100.00;100552.31;5006581;28;20230;-67
2023/12/26 13:59:08;;;;;;;1.63;0.67;;;;;;;11.70;100.00;100560.25;5004352;28;20203;-67
2023/12/26 14:01:34;;;;;;;3.53;0.67;;;;;;;11.70;100.00;100565.56;5003023;28;20203;-67
2023/12/26 14:04:02;;;;;;;1.80;0.57;;;;;;;11.63;100.00;100562.81;4995316;28;20211;-68
2023/12/26 14:06:29;;;;;;;1.07;0.67;;;;;;;11.66;100.00;100565.50;5005895;28;20716;-68
2023/12/26 14:08:55;;;;;;;0.97;0.60;;;;;;;11.52;100.00;100565.31;5002836;28;20666;-68
2023/12/26 14:11:23;;;;;;;2.17;0.50;;;;;;;11.40;100.00;100555.47;4993602;28;20256;-68
2023/12/26 14:13:49;;;;;;;1.20;0.80;;;;;;;11.35;100.00;100564.22;4991820;28;20242;-68
2023/12/26 14:16:19;;;;;;;1.90;0.70;;;;;;;11.23;100.00;100567.63;4999446;28;20687;-68